Pigeon Falls, Wisconsin
Current Conditions -  °F | °C
As of 2:35 AM on Friday 28 Nov 2014 (Local Time) from KBCK Reporting Station
Light Snow Light Snow  
Wind Chill: 10°   Ceiling: 3400
Heat Index: 10°   Visibility: 7mi
Dew Point:   Wind: 0mph
Humidity: 73%   Direction: NA
Pressure: 30.29"   Gusts: NA
Location:  44.43°N, 91.21°W
Report Text: KBCK 280835Z AUTO 00000KT 7SM -SN SCT024 BKN034 OVC050 M12/M16 A3029 RMK AO2 T11201159
Loading
Personal Weather Stations






























Interactive Weather Map New forecast layout! Learn more

10-Day Weather Forecast

Advertisements
Track Severe Weather on mobile